Time;durP1;ratioP1;P1;durP2;ratioP2;P2;SDS_P1;SDS_P2;PMS_P1;PMS_P2;Temp;Humidity;BMP_temperature;BMP_pressure;BME280_temperature;BME280_humidity;BME280_pressure;Samples;Min_cycle;Max_cycle;Signal;HPM_P1;HPM_P2
2023/05/27 00:01:18;;;;;;;5.73;2.23;;;;;;;13.12;47.72;101182.91;5113715;27;20200;-65
2023/05/27 00:03:47;;;;;;;4.00;1.87;;;;;;;13.05;48.03;101189.84;5103963;28;20208;-64
2023/05/27 00:06:16;;;;;;;7.17;2.80;;;;;;;13.04;48.81;101186.38;5114943;28;20199;-64
2023/05/27 00:08:44;;;;;;;9.53;2.63;;;;;;;12.98;48.56;101191.56;5111845;28;20196;-64
2023/05/27 00:11:12;;;;;;;6.10;2.10;;;;;;;12.89;49.00;101194.19;5112626;28;20270;-65
2023/05/27 00:13:40;;;;;;;9.23;2.43;;;;;;;12.86;49.39;101195.94;5096090;28;20210;-64
2023/05/27 00:16:08;;;;;;;6.30;2.50;;;;;;;12.81;49.56;101195.91;5114760;28;20227;-65
2023/05/27 00:18:39;;;;;;;5.87;2.27;;;;;;;12.72;49.51;101201.97;5113330;27;20270;-64
2023/05/27 00:21:07;;;;;;;8.17;2.50;;;;;;;12.63;49.93;101212.34;5110490;27;20659;-63
2023/05/27 00:23:36;;;;;;;8.57;2.87;;;;;;;12.54;50.11;101199.41;5112045;27;20563;-63
2023/05/27 00:26:04;;;;;;;9.57;2.93;;;;;;;12.55;50.41;101201.13;5113665;28;20216;-64
2023/05/27 00:28:32;;;;;;;9.83;2.70;;;;;;;12.54;50.48;101199.41;5113021;28;20207;-63
2023/05/27 00:31:00;;;;;;;8.90;2.50;;;;;;;12.53;50.62;101197.72;5114950;28;20226;-63
2023/05/27 00:33:28;;;;;;;8.03;2.80;;;;;;;12.45;51.02;101189.09;5113641;28;20745;-64
2023/05/27 00:35:56;;;;;;;6.40;2.53;;;;;;;12.46;51.21;101191.69;5115132;27;20203;-63
2023/05/27 00:38:24;;;;;;;11.27;2.93;;;;;;;12.47;50.97;101188.22;5108048;28;20661;-62
2023/05/27 00:40:56;;;;;;;5.83;2.17;;;;;;;12.48;51.35;101195.13;5109394;27;20200;-62
2023/05/27 00:43:24;;;;;;;5.87;2.40;;;;;;;12.47;51.63;101201.16;5112116;28;20214;-61
2023/05/27 00:45:52;;;;;;;6.90;2.60;;;;;;;12.46;51.40;101190.81;5113027;28;20228;-61
2023/05/27 00:48:21;;;;;;;7.53;2.87;;;;;;;12.43;51.14;101188.22;5108369;28;20291;-61
2023/05/27 00:50:49;;;;;;;9.27;2.73;;;;;;;12.39;51.57;101189.09;5112524;28;20196;-61
2023/05/27 00:53:18;;;;;;;6.80;2.40;;;;;;;12.39;51.79;101189.97;5114314;27;20215;-63
2023/05/27 00:55:47;;;;;;;6.30;2.30;;;;;;;12.36;52.01;101202.88;5111820;28;20203;-62
2023/05/27 00:58:18;;;;;;;8.17;2.50;;;;;;;12.35;51.98;101192.56;5105445;28;20200;-64
2023/05/27 01:00:46;;;;;;;7.63;2.30;;;;;;;12.33;52.30;101195.13;5113668;28;20200;-62
2023/05/27 01:03:14;;;;;;;6.57;2.33;;;;;;;12.35;52.43;101197.72;5108322;28;20196;-62
2023/05/27 01:05:42;;;;;;;6.50;2.57;;;;;;;12.37;51.79;101186.53;5111350;28;20228;-64
2023/05/27 01:08:25;;;;;;;7.67;2.57;;;;;;;12.38;52.27;101197.72;5112066;28;20741;-62
2023/05/27 01:10:54;;;;;;;8.63;2.33;;;;;;;12.39;51.95;101194.28;5109046;27;20211;-61
2023/05/27 01:13:34;;;;;;;7.87;2.40;;;;;;;12.35;51.85;101188.25;5113389;28;20292;-63
2023/05/27 01:16:06;;;;;;;7.23;2.43;;;;;;;12.27;52.54;101192.56;5098894;28;20198;-63
2023/05/27 01:18:35;;;;;;;8.50;2.47;;;;;;;12.17;52.71;101194.28;5112349;28;20708;-63
2023/05/27 01:21:06;;;;;;;8.03;2.37;;;;;;;12.11;52.98;101191.66;5113983;28;20208;-63
2023/05/27 01:23:38;;;;;;;6.63;2.50;;;;;;;12.07;53.31;101197.69;5112747;28;20200;-63
2023/05/27 01:26:06;;;;;;;9.43;3.00;;;;;;;12.03;53.43;101186.50;5103487;28;20346;-62
2023/05/27 01:28:35;;;;;;;7.37;2.87;;;;;;;11.99;53.46;101200.28;5113166;27;20669;-62
2023/05/27 01:31:09;;;;;;;6.07;2.53;;;;;;;12.02;53.84;101195.13;5111170;28;20212;-65
2023/05/27 01:33:39;;;;;;;6.93;2.77;;;;;;;12.12;53.54;101196.00;5111638;27;20273;-61
2023/05/27 01:36:13;;;;;;;6.10;2.40;;;;;;;12.18;53.23;101189.97;5107904;28;20642;-61
2023/05/27 01:38:46;;;;;;;9.17;2.90;;;;;;;12.16;53.48;101196.88;5111205;28;20245;-62
2023/05/27 01:41:15;;;;;;;9.00;2.57;;;;;;;12.16;53.57;101191.69;5112167;28;20200;-62
2023/05/27 01:43:44;;;;;;;4.60;2.20;;;;;;;12.12;53.79;101193.41;5113089;28;20195;-61
2023/05/27 01:46:12;;;;;;;7.27;2.43;;;;;;;12.16;53.90;101202.03;5112201;28;20314;-61
2023/05/27 01:48:40;;;;;;;12.67;2.67;;;;;;;12.22;53.94;101202.00;5111058;28;20587;-62
2023/05/27 01:51:08;;;;;;;10.00;2.93;;;;;;;12.27;53.51;101202.91;5104292;28;20200;-62
2023/05/27 01:53:37;;;;;;;12.13;2.87;;;;;;;12.29;53.50;101203.75;5113111;28;20211;-64
2023/05/27 01:56:06;;;;;;;9.03;3.10;;;;;;;12.25;53.51;101202.00;5112021;28;20202;-62
2023/05/27 01:58:34;;;;;;;5.53;2.43;;;;;;;12.12;53.84;101200.31;5111122;28;20204;-63
2023/05/27 02:01:02;;;;;;;10.17;2.80;;;;;;;12.07;54.22;101203.72;5112817;27;20200;-62
2023/05/27 02:03:30;;;;;;;12.93;2.57;;;;;;;12.04;54.57;101205.44;5112328;28;20200;-62
2023/05/27 02:05:58;;;;;;;8.73;2.50;;;;;;;11.98;54.70;101206.31;5111802;28;20231;-61
2023/05/27 02:08:27;;;;;;;5.97;2.60;;;;;;;11.84;54.57;101216.63;5109267;28;20204;-63
2023/05/27 02:10:55;;;;;;;8.30;3.60;;;;;;;11.74;55.21;101213.97;5107220;28;20204;-61
2023/05/27 02:13:24;;;;;;;7.53;2.67;;;;;;;11.70;55.49;101219.97;5112968;28;20210;-62
2023/05/27 02:15:52;;;;;;;9.40;2.40;;;;;;;11.67;55.99;101222.56;5103477;28;20276;-62
2023/05/27 02:18:21;;;;;;;5.83;2.43;;;;;;;11.66;56.06;101220.84;5109212;27;20675;-64
2023/05/27 02:20:49;;;;;;;9.63;3.27;;;;;;;11.65;56.14;101219.97;5110226;28;20208;-61
2023/05/27 02:23:17;;;;;;;7.47;2.87;;;;;;;11.60;56.27;101225.13;5110855;28;20716;-61
2023/05/27 02:25:45;;;;;;;9.67;2.77;;;;;;;11.64;56.25;101218.28;5111043;28;20215;-62
2023/05/27 02:28:13;;;;;;;7.87;2.70;;;;;;;11.66;56.22;101216.53;5111008;28;20210;-62
2023/05/27 02:30:42;;;;;;;6.90;2.73;;;;;;;11.69;56.15;101223.44;5110956;28;20208;-61
2023/05/27 02:33:10;;;;;;;7.53;2.73;;;;;;;11.71;56.08;101222.59;5109707;27;20239;-62
2023/05/27 02:35:38;;;;;;;12.87;2.90;;;;;;;11.75;56.11;101231.22;5111862;27;20208;-62
2023/05/27 02:38:06;;;;;;;6.70;2.57;;;;;;;11.71;56.29;101234.63;5111428;28;20265;-63
2023/05/27 02:40:34;;;;;;;8.63;3.00;;;;;;;11.64;56.14;101228.59;5109661;28;20200;-63
2023/05/27 02:43:02;;;;;;;8.77;2.90;;;;;;;11.57;56.51;101230.28;5110664;28;20206;-61
2023/05/27 02:45:30;;;;;;;8.57;2.73;;;;;;;11.54;56.86;101232.84;5106900;28;20219;-61
2023/05/27 02:48:01;;;;;;;9.90;3.07;;;;;;;11.55;57.26;101234.56;5110409;28;20196;-62
2023/05/27 02:50:29;;;;;;;8.10;2.80;;;;;;;11.57;56.94;101234.59;5102001;28;20218;-61
2023/05/27 02:52:57;;;;;;;10.07;3.27;;;;;;;11.57;57.47;101232.88;5110810;28;20209;-62
2023/05/27 02:55:25;;;;;;;11.10;2.53;;;;;;;11.63;57.43;101236.31;5109673;28;20233;-61
2023/05/27 02:57:53;;;;;;;5.60;2.57;;;;;;;11.59;57.46;101238.88;5111241;28;20211;-61
2023/05/27 03:00:21;;;;;;;4.87;1.97;;;;;;;11.55;57.70;101234.56;5109859;28;20196;-61
2023/05/27 03:02:49;;;;;;;6.07;2.60;;;;;;;11.49;57.99;101241.44;5109995;28;20192;-67
2023/05/27 03:05:18;;;;;;;5.50;2.20;;;;;;;11.46;57.73;101249.19;5109509;28;20230;-62
2023/05/27 03:07:46;;;;;;;5.27;2.37;;;;;;;11.38;58.46;101246.56;5104738;27;20674;-61
2023/05/27 03:10:14;;;;;;;6.53;3.00;;;;;;;11.39;58.84;101253.44;5111449;28;20219;-61
2023/05/27 03:12:42;;;;;;;7.80;2.80;;;;;;;11.37;59.17;101249.97;5108682;28;20563;-62
2023/05/27 03:15:10;;;;;;;11.13;2.57;;;;;;;11.41;58.85;101249.13;5109531;28;20577;-62
2023/05/27 03:17:38;;;;;;;10.13;2.83;;;;;;;11.47;58.69;101245.72;5109108;28;20287;-62
2023/05/27 03:20:07;;;;;;;10.37;3.30;;;;;;;11.45;58.62;101248.31;5110318;28;20216;-62
2023/05/27 03:22:37;;;;;;;9.27;2.87;;;;;;;11.44;58.96;101251.72;5110730;28;20206;-60
2023/05/27 03:25:06;;;;;;;7.03;2.40;;;;;;;11.44;58.97;101240.56;5107950;28;20199;-60
2023/05/27 03:27:35;;;;;;;7.63;3.17;;;;;;;11.46;59.07;101252.63;5110914;28;20220;-62
2023/05/27 03:30:04;;;;;;;9.07;2.80;;;;;;;11.52;58.84;101244.88;5111114;28;20206;-62
2023/05/27 03:32:31;;;;;;;10.37;2.63;;;;;;;11.57;58.55;101247.50;5110445;28;20231;-62
2023/05/27 03:34:59;;;;;;;5.13;2.40;;;;;;;11.51;58.68;101244.88;5110848;28;20240;-62
2023/05/27 03:37:27;;;;;;;7.13;2.70;;;;;;;11.48;59.01;101250.03;5107931;28;20203;-64
2023/05/27 03:39:57;;;;;;;8.70;3.10;;;;;;;11.47;58.91;101259.50;5110640;28;20646;-64
2023/05/27 03:42:25;;;;;;;8.87;2.70;;;;;;;11.44;59.40;101250.88;5105950;28;20214;-63
2023/05/27 03:44:52;;;;;;;8.83;3.07;;;;;;;11.49;59.65;101260.38;5109278;28;20587;-63
2023/05/27 03:47:21;;;;;;;7.80;2.87;;;;;;;11.51;59.31;101257.78;5108134;28;20298;-65
2023/05/27 03:49:49;;;;;;;8.03;2.57;;;;;;;11.54;59.01;101261.25;5109716;28;20227;-63
2023/05/27 03:52:17;;;;;;;7.90;2.80;;;;;;;11.50;59.15;101266.41;5103760;28;20207;-66
2023/05/27 03:54:45;;;;;;;7.33;2.70;;;;;;;11.52;59.03;101267.25;5110280;28;20196;-64
2023/05/27 03:57:15;;;;;;;9.93;2.93;;;;;;;11.54;59.15;101269.00;5106595;28;20738;-64
2023/05/27 03:59:43;;;;;;;10.93;3.27;;;;;;;11.65;59.43;101273.34;5110577;28;20244;-64
2023/05/27 04:02:11;;;;;;;5.80;2.83;;;;;;;11.69;59.07;101267.31;5109303;28;20577;-64
2023/05/27 04:04:39;;;;;;;6.80;2.50;;;;;;;11.72;58.88;101275.09;5107334;28;20208;-63
2023/05/27 04:07:07;;;;;;;7.07;3.43;;;;;;;11.74;58.57;101279.38;5108845;28;20613;-65
2023/05/27 04:09:35;;;;;;;8.13;2.67;;;;;;;11.67;58.98;101276.78;5107764;28;20200;-64
2023/05/27 04:12:03;;;;;;;6.97;2.50;;;;;;;11.68;59.30;101289.69;5107921;28;20212;-64
2023/05/27 04:14:33;;;;;;;5.97;2.53;;;;;;;11.83;59.21;101286.31;5108882;28;20581;-64
2023/05/27 04:17:01;;;;;;;9.23;2.83;;;;;;;11.92;58.59;101288.94;5101409;28;20218;-64
2023/05/27 04:19:32;;;;;;;9.30;2.73;;;;;;;11.99;58.42;101293.25;5109728;28;20207;-64
2023/05/27 04:22:00;;;;;;;6.97;2.37;;;;;;;12.00;58.38;101295.00;5103592;28;20758;-67
2023/05/27 04:24:28;;;;;;;11.23;3.17;;;;;;;12.04;58.76;101286.41;5099221;28;20652;-65
2023/05/27 04:26:56;;;;;;;8.47;2.43;;;;;;;12.20;58.38;101291.59;5103181;28;20375;-65
2023/05/27 04:29:25;;;;;;;6.63;2.50;;;;;;;12.38;57.92;101296.81;5102546;28;20337;-66
2023/05/27 04:31:56;;;;;;;9.30;2.83;;;;;;;12.60;57.00;101302.00;5102902;28;20290;-66
2023/05/27 04:34:24;;;;;;;7.87;2.50;;;;;;;12.69;56.84;101296.81;5104065;28;20208;-70
2023/05/27 04:36:52;;;;;;;9.37;2.93;;;;;;;12.73;56.28;101307.13;5101983;28;20203;-66
2023/05/27 04:39:20;;;;;;;7.17;2.43;;;;;;;12.74;56.72;101295.06;5106474;28;20204;-65
2023/05/27 04:41:48;;;;;;;4.13;2.27;;;;;;;12.83;56.34;101295.06;5108723;28;20210;-66
2023/05/27 04:44:17;;;;;;;6.50;2.37;;;;;;;12.97;56.22;101293.34;5103438;28;20546;-62
2023/05/27 04:46:45;;;;;;;6.77;2.60;;;;;;;12.95;55.16;101302.81;5108903;28;20238;-63
2023/05/27 04:49:14;;;;;;;7.27;2.43;;;;;;;12.99;55.79;101295.91;5105931;28;20265;-62
2023/05/27 04:51:42;;;;;;;5.43;2.40;;;;;;;13.08;54.97;101302.81;5109202;28;20208;-62
2023/05/27 04:54:11;;;;;;;6.17;2.40;;;;;;;13.25;55.09;101303.66;5109633;28;20211;-62
2023/05/27 04:56:38;;;;;;;6.60;2.30;;;;;;;13.31;54.28;101295.88;5113870;28;20273;-61
2023/05/27 04:59:06;;;;;;;4.20;2.20;;;;;;;13.34;54.76;101302.78;5104716;27;20204;-64
2023/05/27 05:01:48;;;;;;;5.60;2.13;;;;;;;13.60;54.31;101300.13;5112495;28;20212;-63
2023/05/27 05:04:18;;;;;;;6.23;2.20;;;;;;;13.77;53.57;101304.38;5105185;27;20670;-62
2023/05/27 05:06:46;;;;;;;7.53;2.27;;;;;;;13.89;53.17;101303.44;5110758;28;20378;-64
2023/05/27 05:09:14;;;;;;;9.17;2.20;;;;;;;14.07;52.48;101296.44;5112230;28;20200;-63
2023/05/27 05:11:42;;;;;;;6.13;2.37;;;;;;;14.30;52.01;101309.25;5113883;28;20234;-64
2023/05/27 05:14:10;;;;;;;8.23;2.30;;;;;;;14.47;51.38;101302.19;5108942;28;20204;-61
2023/05/27 05:16:38;;;;;;;6.57;2.40;;;;;;;14.69;50.51;101310.69;5109033;28;20620;-63
2023/05/27 05:19:06;;;;;;;7.70;2.50;;;;;;;14.83;49.46;101305.41;5103221;28;20200;-63
2023/05/27 05:21:36;;;;;;;7.47;2.33;;;;;;;15.07;48.71;101299.13;5113283;28;20651;-64
2023/05/27 05:24:04;;;;;;;7.17;2.03;;;;;;;15.30;48.16;101309.28;5113229;28;20196;-62
2023/05/27 05:26:36;;;;;;;7.43;1.87;;;;;;;15.52;47.27;101296.91;5107530;28;20204;-63
2023/05/27 05:29:04;;;;;;;4.50;2.27;;;;;;;15.64;46.62;101287.22;5112898;28;20680;-63
2023/05/27 05:31:32;;;;;;;7.17;2.40;;;;;;;15.64;46.96;101296.75;5112084;28;20196;-64
2023/05/27 05:34:00;;;;;;;5.07;2.10;;;;;;;15.55;46.67;101289.94;5112678;28;20740;-62
2023/05/27 05:36:28;;;;;;;4.60;1.87;;;;;;;15.47;46.99;101299.56;5109195;27;20200;-64
2023/05/27 05:38:57;;;;;;;6.23;2.00;;;;;;;15.35;47.57;101294.50;5109680;28;20207;-64
2023/05/27 05:41:25;;;;;;;4.70;2.22;;;;;;;15.40;48.19;101297.91;5105939;28;20215;-65
2023/05/27 05:43:54;;;;;;;4.07;2.60;;;;;;;15.48;47.61;101306.47;5112281;28;20203;-66
2023/05/27 05:46:22;;;;;;;4.88;2.05;;;;;;;15.50;47.07;101306.44;5112529;28;20230;-63
2023/05/27 05:48:53;;;;;;;6.65;2.17;;;;;;;15.58;47.32;101302.03;5110845;28;20257;-66
2023/05/27 05:51:21;;;;;;;5.85;2.25;;;;;;;15.72;46.67;101304.47;5108853;28;20556;-68
2023/05/27 05:53:49;;;;;;;4.07;1.85;;;;;;;15.83;46.19;101306.09;5103157;28;20214;-65
2023/05/27 05:56:19;;;;;;;6.75;2.13;;;;;;;15.93;45.18;101302.47;5106352;27;20300;-66
2023/05/27 05:58:47;;;;;;;3.22;1.75;;;;;;;16.01;45.06;101299.75;5105698;28;20201;-65
2023/05/27 06:01:16;;;;;;;5.18;2.00;;;;;;;16.24;45.34;101308.97;5107194;27;20567;-67
2023/05/27 06:03:45;;;;;;;3.05;1.73;;;;;;;16.59;44.58;101308.44;5113551;28;20200;-64
2023/05/27 06:06:14;;;;;;;5.28;1.90;;;;;;;16.88;43.36;101307.97;5110377;28;20623;-65
2023/05/27 06:08:42;;;;;;;4.25;1.80;;;;;;;17.12;42.95;101304.94;5113076;28;20616;-66
2023/05/27 06:11:10;;;;;;;6.28;1.88;;;;;;;17.10;42.30;101306.72;5112477;28;20659;-63
2023/05/27 06:13:40;;;;;;;5.68;2.00;;;;;;;17.19;41.85;101305.66;5112776;28;20204;-64
2023/05/27 06:16:08;;;;;;;3.38;1.88;;;;;;;17.24;41.52;101314.28;5112746;28;20626;-68
2023/05/27 06:18:36;;;;;;;7.10;2.13;;;;;;;17.34;41.85;101323.66;5105498;27;20284;-65
2023/05/27 06:21:04;;;;;;;4.68;1.83;;;;;;;17.50;41.07;101323.34;5111190;28;20651;-64
2023/05/27 06:23:32;;;;;;;4.57;1.85;;;;;;;17.35;40.58;101325.34;5112649;28;20577;-65
2023/05/27 06:26:00;;;;;;;5.55;1.98;;;;;;;17.07;41.02;101329.34;5112435;28;20212;-65
2023/05/27 06:28:28;;;;;;;5.47;2.20;;;;;;;16.85;41.71;101334.91;5112664;28;20597;-66
2023/05/27 06:30:57;;;;;;;3.80;1.60;;;;;;;16.69;41.53;101337.78;5111592;28;20204;-64
2023/05/27 06:33:25;;;;;;;3.25;1.40;;;;;;;16.45;42.30;101339.00;5112123;28;20232;-64
2023/05/27 06:35:53;;;;;;;3.85;2.00;;;;;;;16.26;41.78;101339.28;5110665;28;20206;-64
2023/05/27 06:38:21;;;;;;;4.80;1.73;;;;;;;16.14;42.63;101342.06;5121565;27;20195;-65
2023/05/27 06:40:49;;;;;;;4.28;1.98;;;;;;;16.08;42.77;101343.00;5104277;27;20204;-65
2023/05/27 06:43:17;;;;;;;3.83;1.70;;;;;;;16.18;42.73;101341.13;5110164;28;20274;-64
2023/05/27 06:45:45;;;;;;;3.03;1.83;;;;;;;16.39;42.97;101343.44;5111224;28;20627;-66
2023/05/27 06:48:31;;;;;;;7.18;1.80;;;;;;;16.58;42.24;101340.56;5110553;28;20244;-65
2023/05/27 06:50:59;;;;;;;3.97;1.85;;;;;;;16.81;42.17;101353.22;5108487;28;20218;-65
2023/05/27 06:53:27;;;;;;;6.20;1.50;;;;;;;16.98;40.73;101342.53;5112408;28;20654;-67
2023/05/27 06:55:56;;;;;;;3.13;1.50;;;;;;;17.04;40.23;101342.41;5112109;28;20662;-66
2023/05/27 06:58:24;;;;;;;3.85;1.80;;;;;;;17.10;40.40;101342.31;5111013;27;20199;-66
2023/05/27 07:00:52;;;;;;;4.65;1.50;;;;;;;17.26;39.79;101341.13;5109605;28;20200;-68
2023/05/27 07:03:20;;;;;;;5.45;1.73;;;;;;;17.46;38.83;101343.38;5109863;28;20206;-69
2023/05/27 07:05:50;;;;;;;2.92;1.25;;;;;;;17.68;38.09;101350.78;5109493;28;20214;-65
2023/05/27 07:08:18;;;;;;;8.15;1.55;;;;;;;17.60;37.33;101343.13;5111132;28;20216;-66
2023/05/27 07:10:46;;;;;;;3.45;1.90;;;;;;;17.55;37.29;101352.75;5110840;28;20675;-64
2023/05/27 07:13:15;;;;;;;2.47;1.38;;;;;;;17.68;36.72;101351.66;5110047;28;20210;-64
2023/05/27 07:15:43;;;;;;;2.85;1.25;;;;;;;17.82;35.99;101352.25;5110155;28;20211;-66
2023/05/27 07:18:11;;;;;;;2.55;1.20;;;;;;;17.92;35.51;101352.06;5111495;28;20223;-64
2023/05/27 07:20:39;;;;;;;3.05;1.35;;;;;;;18.08;35.40;101354.31;5112063;28;20211;-66
2023/05/27 07:23:09;;;;;;;2.78;1.17;;;;;;;18.21;35.25;101352.28;5106148;28;20226;-64
2023/05/27 07:25:37;;;;;;;3.00;1.30;;;;;;;18.22;33.91;101343.56;5111534;28;20286;-65
2023/05/27 07:28:05;;;;;;;2.55;1.20;;;;;;;17.92;34.12;101346.84;5111679;28;20718;-66
2023/05/27 07:30:35;;;;;;;4.07;1.50;;;;;;;17.58;34.42;101347.50;5111210;28;20256;-66
2023/05/27 07:33:03;;;;;;;4.78;1.40;;;;;;;17.36;35.58;101339.22;5109885;28;20243;-65
2023/05/27 07:35:31;;;;;;;2.85;1.10;;;;;;;17.25;35.83;101349.84;5111312;28;20204;-65
2023/05/27 07:38:00;;;;;;;2.83;1.30;;;;;;;17.37;36.03;101343.53;5111255;28;20208;-64
2023/05/27 07:40:29;;;;;;;4.22;1.63;;;;;;;17.60;35.68;101343.13;5109142;28;20208;-65
2023/05/27 07:42:57;;;;;;;2.22;1.20;;;;;;;17.73;35.42;101336.75;5111360;28;20290;-65
2023/05/27 07:45:25;;;;;;;2.90;1.50;;;;;;;17.86;35.64;101335.66;5099775;28;20208;-62
2023/05/27 07:47:53;;;;;;;5.57;1.15;;;;;;;17.99;34.66;101332.78;5109384;28;20257;-62
2023/05/27 07:50:21;;;;;;;5.13;1.20;;;;;;;18.02;34.25;101324.91;5104212;28;20207;-61
2023/05/27 07:52:49;;;;;;;3.28;1.13;;;;;;;18.04;33.92;101333.53;5109455;28;20290;-61
2023/05/27 07:55:17;;;;;;;2.72;1.10;;;;;;;18.20;33.73;101332.31;5107348;28;20295;-63
2023/05/27 07:57:46;;;;;;;4.45;1.40;;;;;;;18.42;33.13;101326.59;5111332;28;20200;-61
2023/05/27 08:00:15;;;;;;;4.93;1.10;;;;;;;18.52;32.64;101320.25;5109507;28;20192;-62
2023/05/27 08:02:43;;;;;;;3.75;1.40;;;;;;;18.56;32.78;101314.09;5107576;28;20200;-62
2023/05/27 08:05:11;;;;;;;2.40;1.20;;;;;;;18.57;33.35;101316.66;5110097;28;20200;-62
2023/05/27 08:07:39;;;;;;;2.58;1.23;;;;;;;18.43;32.89;101312.66;5109633;28;20207;-63
2023/05/27 08:10:09;;;;;;;2.75;1.10;;;;;;;18.13;33.38;101314.22;5102089;28;20275;-61
2023/05/27 08:12:37;;;;;;;2.03;1.23;;;;;;;18.08;33.95;101316.94;5105310;28;20211;-61
2023/05/27 08:15:08;;;;;;;2.83;1.25;;;;;;;18.27;34.38;101313.00;5108164;28;20710;-63
2023/05/27 08:17:36;;;;;;;5.75;1.00;;;;;;;18.44;33.85;101309.13;5111866;28;20210;-62
2023/05/27 08:20:05;;;;;;;2.65;1.33;;;;;;;18.51;33.56;101308.09;5108093;28;20196;-63
2023/05/27 08:22:34;;;;;;;3.38;1.48;;;;;;;18.59;32.69;101320.09;5105876;28;20219;-62
2023/05/27 08:25:01;;;;;;;1.20;0.80;;;;;;;18.65;31.63;101316.47;5104619;28;20204;-60
2023/05/27 08:27:46;;;;;;;2.67;1.23;;;;;;;18.33;29.83;101323.28;5115045;28;20685;-61
2023/05/27 08:30:16;;;;;;;4.22;0.90;;;;;;;18.15;29.26;101318.50;5109610;27;20239;-61
2023/05/27 08:32:44;;;;;;;2.13;1.05;;;;;;;18.11;29.60;101319.47;5104159;28;20242;-63
2023/05/27 08:35:13;;;;;;;1.52;1.08;;;;;;;18.09;30.34;101316.03;5111904;28;20204;-61
2023/05/27 08:37:41;;;;;;;1.45;1.10;;;;;;;18.25;30.74;101314.78;5110619;28;20211;-61
2023/05/27 08:40:13;;;;;;;3.30;1.15;;;;;;;18.46;30.08;101307.38;5108713;28;20192;-63
2023/05/27 08:42:42;;;;;;;2.13;1.02;;;;;;;18.53;29.07;101308.94;5113477;28;20207;-65
2023/05/27 08:45:11;;;;;;;2.38;1.08;;;;;;;18.54;29.18;101308.03;5112282;28;20287;-62
2023/05/27 08:47:40;;;;;;;2.97;1.00;;;;;;;18.56;29.07;101293.19;5113479;28;20207;-61
2023/05/27 08:50:09;;;;;;;3.08;1.13;;;;;;;18.70;28.83;101306.75;5108555;27;20678;-60
2023/05/27 08:52:42;;;;;;;2.80;1.02;;;;;;;18.78;28.20;101306.63;5111370;28;20200;-63
2023/05/27 08:55:13;;;;;;;5.78;1.33;;;;;;;18.82;28.26;101309.09;5107241;28;20207;-61
2023/05/27 08:57:44;;;;;;;2.70;1.10;;;;;;;18.79;27.70;101308.31;5111854;28;20662;-61
2023/05/27 09:00:14;;;;;;;1.17;1.02;;;;;;;18.87;27.85;101308.13;5106206;28;20291;-62
2023/05/27 09:02:46;;;;;;;1.50;0.90;;;;;;;18.86;26.79;101301.19;5113182;28;20206;-61
2023/05/27 09:05:17;;;;;;;3.72;0.93;;;;;;;18.86;27.24;101302.03;5104564;28;20204;-61
2023/05/27 09:07:45;;;;;;;2.05;1.00;;;;;;;18.88;26.79;101291.53;5112498;28;20204;-61
2023/05/27 09:10:13;;;;;;;1.20;0.80;;;;;;;18.91;27.36;101301.91;5112276;28;20216;-61
2023/05/27 09:12:43;;;;;;;2.25;1.20;;;;;;;19.02;27.81;101286.81;5111654;27;20214;-62
2023/05/27 09:15:12;;;;;;;1.85;0.93;;;;;;;19.20;27.57;101291.53;5112165;28;20196;-62
2023/05/27 09:17:43;;;;;;;1.00;0.90;;;;;;;19.31;27.20;101293.88;5112729;28;20207;-67
2023/05/27 09:20:13;;;;;;;1.75;1.65;;;;;;;19.37;26.89;101284.97;5112845;28;20227;-61
2023/05/27 09:22:41;;;;;;;2.63;1.08;;;;;;;19.20;26.55;101288.94;5109494;28;20200;-62
2023/05/27 09:25:10;;;;;;;2.05;1.17;;;;;;;19.17;27.43;101296.84;5110933;28;20196;-64
2023/05/27 09:27:43;;;;;;;3.22;1.10;;;;;;;19.29;27.05;101295.66;5109348;28;20204;-62
2023/05/27 09:30:12;;;;;;;2.30;1.02;;;;;;;19.30;26.67;101297.38;5105312;27;20212;-63
2023/05/27 09:32:40;;;;;;;3.50;1.30;;;;;;;19.25;25.95;101288.81;5107801;28;20281;-63
2023/05/27 09:35:11;;;;;;;2.33;1.05;;;;;;;19.25;25.95;101289.66;5112872;28;20207;-63
2023/05/27 09:37:41;;;;;;;1.83;1.00;;;;;;;19.30;26.02;101303.47;5110807;28;20208;-64
2023/05/27 09:40:10;;;;;;;2.55;0.90;;;;;;;19.25;26.59;101289.66;5112157;28;20200;-63
2023/05/27 09:42:45;;;;;;;2.45;0.85;;;;;;;19.39;26.17;101296.25;5112558;28;20216;-62
2023/05/27 09:45:15;;;;;;;1.65;0.68;;;;;;;19.55;25.53;101287.97;5111322;28;20200;-64
2023/05/27 09:47:49;;;;;;;2.22;0.90;;;;;;;19.60;24.56;101294.81;5110606;27;20214;-62
2023/05/27 09:50:18;;;;;;;10.90;0.80;;;;;;;19.68;24.25;101285.00;5109100;27;20611;-61
2023/05/27 09:52:49;;;;;;;1.80;1.35;;;;;;;19.78;24.05;101289.91;5108729;28;20634;-61
2023/05/27 09:55:33;;;;;;;1.60;0.95;;;;;;;19.83;23.68;101294.16;5104377;28;20287;-64
2023/05/27 09:58:01;;;;;;;5.07;1.05;;;;;;;19.96;23.80;101291.13;5108794;27;20200;-63
2023/05/27 10:00:31;;;;;;;3.25;0.98;;;;;;;20.13;23.51;101279.28;5109705;28;20208;-66
2023/05/27 10:03:02;;;;;;;0.73;0.73;;;;;;;20.21;23.07;101286.00;5100101;27;20659;-62
2023/05/27 10:05:31;;;;;;;4.35;0.90;;;;;;;20.56;23.04;101289.25;5110604;28;20211;-62
2023/05/27 10:08:01;;;;;;;0.88;0.80;;;;;;;21.48;22.24;101293.94;5109670;28;20211;-61
2023/05/27 10:10:33;;;;;;;1.83;0.82;;;;;;;22.67;20.68;101297.09;5110254;27;20675;-61
2023/05/27 10:13:03;;;;;;;5.28;0.77;;;;;;;24.14;19.66;101283.56;5110730;28;20553;-63
2023/05/27 10:15:32;;;;;;;1.15;1.05;;;;;;;25.69;18.02;101284.38;5111655;27;20200;-63
2023/05/27 10:18:07;;;;;;;4.72;1.10;;;;;;;27.27;17.90;101283.19;5108750;28;20204;-64
2023/05/27 10:20:38;;;;;;;1.73;1.00;;;;;;;28.09;14.71;101283.22;5101359;28;20195;-66
2023/05/27 10:23:15;;;;;;;1.30;0.90;;;;;;;28.09;13.70;101277.09;5112862;28;20547;-61
2023/05/27 10:25:48;;;;;;;1.90;0.98;;;;;;;27.77;13.91;101279.19;5109684;28;20231;-64
2023/05/27 10:28:26;;;;;;;1.02;0.70;;;;;;;28.38;14.25;101277.84;5111202;28;20192;-62
2023/05/27 10:31:03;;;;;;;3.38;1.08;;;;;;;29.70;13.67;101272.25;5101367;28;20208;-61
2023/05/27 10:33:32;;;;;;;1.48;0.98;;;;;;;30.76;12.84;101277.69;5112254;28;20717;-62
2023/05/27 10:36:05;;;;;;;1.13;0.85;;;;;;;31.65;12.97;101268.03;5107493;28;20204;-61
2023/05/27 10:38:35;;;;;;;1.77;0.90;;;;;;;32.50;12.23;101276.13;5106593;27;20215;-60
2023/05/27 10:41:04;;;;;;;3.15;1.20;;;;;;;33.33;12.23;101264.50;5109850;28;20287;-61
2023/05/27 10:43:33;;;;;;;2.45;1.00;;;;;;;34.26;10.91;101267.78;5100920;28;20648;-63
2023/05/27 10:46:08;;;;;;;2.85;0.90;;;;;;;34.63;10.63;101265.22;5111245;28;20295;-61
2023/05/27 10:48:39;;;;;;;1.63;0.90;;;;;;;35.28;10.12;101271.50;5109328;28;20195;-61
2023/05/27 10:51:08;;;;;;;3.33;1.15;;;;;;;34.95;10.04;101270.19;5109415;28;20222;-60
2023/05/27 10:53:38;;;;;;;1.70;0.90;;;;;;;34.52;10.23;101268.06;5101415;28;20202;-63
2023/05/27 10:56:08;;;;;;;2.03;0.80;;;;;;;34.02;10.04;101261.00;5102453;28;20207;-61
2023/05/27 10:58:38;;;;;;;2.70;0.90;;;;;;;34.09;10.11;101256.78;5103428;28;20589;-62
2023/05/27 11:01:10;;;;;;;0.90;0.90;;;;;;;34.24;9.83;101273.25;5111672;28;20290;-63
2023/05/27 11:03:43;;;;;;;2.63;0.70;;;;;;;34.27;10.09;101259.59;5110053;28;20212;-61
2023/05/27 11:06:12;;;;;;;1.38;0.90;;;;;;;34.06;10.13;101262.44;5111869;28;20602;-62
2023/05/27 11:08:42;;;;;;;1.67;0.95;;;;;;;34.16;9.97;101266.94;5111694;28;20204;-61
2023/05/27 11:11:12;;;;;;;2.65;2.05;;;;;;;33.97;9.96;101268.59;5110176;28;20212;-61
2023/05/27 11:13:42;;;;;;;2.20;1.02;;;;;;;33.93;10.03;101267.19;5110275;27;20647;-61
2023/05/27 11:16:15;;;;;;;1.60;0.95;;;;;;;33.47;10.45;101255.28;5106530;28;20200;-62
2023/05/27 11:18:45;;;;;;;1.83;0.95;;;;;;;33.30;10.81;101264.78;5109647;28;20578;-62
2023/05/27 11:21:16;;;;;;;2.97;0.82;;;;;;;33.27;10.69;101266.88;5103160;28;20198;-62
2023/05/27 11:23:48;;;;;;;1.10;1.00;;;;;;;33.39;11.16;101257.75;5110163;28;20286;-64
2023/05/27 11:26:18;;;;;;;1.05;0.95;;;;;;;33.44;10.89;101268.91;5103286;28;20200;-61
2023/05/27 11:28:47;;;;;;;2.17;1.00;;;;;;;33.19;10.78;101262.19;5111515;28;20666;-61
2023/05/27 11:31:16;;;;;;;1.30;0.82;;;;;;;32.88;10.47;101254.16;5106880;28;20231;-62
2023/05/27 11:33:45;;;;;;;1.80;1.00;;;;;;;32.56;10.52;101254.25;5111560;28;20274;-62